sensor_id;sensor_type;location;lat;lon;timestamp;pressure;altitude;pressure_sealevel;temperature;humidity
9059;BME280;4564;42.034;25.834;2023-10-31T00:01:06;100427.88;;;11.51;90.45
9059;BME280;4564;42.034;25.834;2023-10-31T00:03:32;100428.28;;;11.48;90.50
9059;BME280;4564;42.034;25.834;2023-10-31T00:05:59;100424.53;;;11.49;90.20
9059;BME280;4564;42.034;25.834;2023-10-31T00:08:27;100420.78;;;11.50;90.42
9059;BME280;4564;42.034;25.834;2023-10-31T00:10:53;100412.31;;;11.59;90.71
9059;BME280;4564;42.034;25.834;2023-10-31T00:13:20;100417.75;;;11.59;91.15
9059;BME280;4564;42.034;25.834;2023-10-31T00:15:46;100416.78;;;11.67;90.20
9059;BME280;4564;42.034;25.834;2023-10-31T00:18:13;100410.72;;;11.65;88.84
9059;BME280;4564;42.034;25.834;2023-10-31T00:20:40;100409.41;;;11.61;89.19
9059;BME280;4564;42.034;25.834;2023-10-31T00:23:06;100405.78;;;11.54;90.66
9059;BME280;4564;42.034;25.834;2023-10-31T00:25:34;100404.09;;;11.53;91.70
9059;BME280;4564;42.034;25.834;2023-10-31T00:28:01;100399.31;;;11.55;91.67
9059;BME280;4564;42.034;25.834;2023-10-31T00:30:27;100401.63;;;11.58;92.57
9059;BME280;4564;42.034;25.834;2023-10-31T00:32:54;100393.09;;;11.61;92.96
9059;BME280;4564;42.034;25.834;2023-10-31T00:35:21;100394.41;;;11.65;92.34
9059;BME280;4564;42.034;25.834;2023-10-31T00:37:47;100395.25;;;11.65;92.55
9059;BME280;4564;42.034;25.834;2023-10-31T00:40:14;100390.16;;;11.77;92.88
9059;BME280;4564;42.034;25.834;2023-10-31T00:42:43;100384.34;;;11.80;92.55
9059;BME280;4564;42.034;25.834;2023-10-31T00:45:10;100394.06;;;11.89;92.96
9059;BME280;4564;42.034;25.834;2023-10-31T00:47:37;100389.03;;;11.86;92.46
9059;BME280;4564;42.034;25.834;2023-10-31T00:50:04;100385.47;;;11.86;93.05
9059;BME280;4564;42.034;25.834;2023-10-31T00:52:30;100386.69;;;11.83;93.24
9059;BME280;4564;42.034;25.834;2023-10-31T00:54:57;100380.13;;;11.77;93.78
9059;BME280;4564;42.034;25.834;2023-10-31T00:57:24;100382.75;;;11.86;93.14
9059;BME280;4564;42.034;25.834;2023-10-31T00:59:52;100379.00;;;11.87;93.49
9059;BME280;4564;42.034;25.834;2023-10-31T01:02:19;100381.25;;;11.83;93.09
9059;BME280;4564;42.034;25.834;2023-10-31T01:04:46;100379.75;;;11.81;92.91
9059;BME280;4564;42.034;25.834;2023-10-31T01:07:12;100374.25;;;11.74;93.39
9059;BME280;4564;42.034;25.834;2023-10-31T01:09:42;100378.00;;;11.73;93.64
9059;BME280;4564;42.034;25.834;2023-10-31T01:12:08;100371.91;;;11.71;93.20
9059;BME280;4564;42.034;25.834;2023-10-31T01:14:35;100366.81;;;11.68;92.67
9059;BME280;4564;42.034;25.834;2023-10-31T01:17:03;100369.19;;;11.56;93.62
9059;BME280;4564;42.034;25.834;2023-10-31T01:19:30;100359.84;;;11.59;92.64
9059;BME280;4564;42.034;25.834;2023-10-31T01:21:56;100363.91;;;11.48;92.83
9059;BME280;4564;42.034;25.834;2023-10-31T01:24:23;100365.88;;;11.40;92.56
9059;BME280;4564;42.034;25.834;2023-10-31T01:26:49;100367.56;;;11.41;92.92
9059;BME280;4564;42.034;25.834;2023-10-31T01:29:16;100364.75;;;11.34;91.84
9059;BME280;4564;42.034;25.834;2023-10-31T01:31:42;100369.88;;;11.22;92.27
9059;BME280;4564;42.034;25.834;2023-10-31T01:34:10;100368.75;;;11.17;91.66
9059;BME280;4564;42.034;25.834;2023-10-31T01:36:37;100365.75;;;10.97;91.51
9059;BME280;4564;42.034;25.834;2023-10-31T01:39:03;100365.00;;;10.88;91.62
9059;BME280;4564;42.034;25.834;2023-10-31T01:41:30;100363.91;;;10.68;92.11
9059;BME280;4564;42.034;25.834;2023-10-31T01:43:56;100366.59;;;10.68;92.49
9059;BME280;4564;42.034;25.834;2023-10-31T01:46:23;100360.13;;;10.55;93.34
9059;BME280;4564;42.034;25.834;2023-10-31T01:48:50;100354.31;;;10.43;94.63
9059;BME280;4564;42.034;25.834;2023-10-31T01:51:18;100349.44;;;10.38;94.00
9059;BME280;4564;42.034;25.834;2023-10-31T01:53:44;100346.25;;;10.20;93.56
9059;BME280;4564;42.034;25.834;2023-10-31T01:56:11;100345.56;;;9.95;93.81
9059;BME280;4564;42.034;25.834;2023-10-31T01:58:37;100351.28;;;10.00;94.58
9059;BME280;4564;42.034;25.834;2023-10-31T02:01:04;100356.53;;;10.02;94.54
9059;BME280;4564;42.034;25.834;2023-10-31T02:03:31;100357.63;;;9.93;94.83
9059;BME280;4564;42.034;25.834;2023-10-31T02:05:58;100355.38;;;9.74;95.74
9059;BME280;4564;42.034;25.834;2023-10-31T02:08:26;100352.50;;;9.75;96.48
9059;BME280;4564;42.034;25.834;2023-10-31T02:10:53;100356.81;;;9.84;96.52
9059;BME280;4564;42.034;25.834;2023-10-31T02:13:19;100357.00;;;9.83;97.44
9059;BME280;4564;42.034;25.834;2023-10-31T02:15:46;100355.72;;;9.93;97.02
9059;BME280;4564;42.034;25.834;2023-10-31T02:18:13;100358.25;;;9.95;97.05
9059;BME280;4564;42.034;25.834;2023-10-31T02:20:40;100354.16;;;9.99;97.19
9059;BME280;4564;42.034;25.834;2023-10-31T02:23:08;100356.88;;;9.99;97.57
9059;BME280;4564;42.034;25.834;2023-10-31T02:25:35;100349.59;;;9.99;97.42
9059;BME280;4564;42.034;25.834;2023-10-31T02:28:01;100351.28;;;10.00;97.06
9059;BME280;4564;42.034;25.834;2023-10-31T02:30:28;100347.06;;;9.98;97.01
9059;BME280;4564;42.034;25.834;2023-10-31T02:32:54;100352.50;;;9.98;97.39
9059;BME280;4564;42.034;25.834;2023-10-31T02:35:21;100359.59;;;9.99;97.68
9059;BME280;4564;42.034;25.834;2023-10-31T02:37:48;100351.09;;;10.02;97.65
9059;BME280;4564;42.034;25.834;2023-10-31T02:40:16;100344.75;;;10.09;97.36
9059;BME280;4564;42.034;25.834;2023-10-31T02:42:42;100346.25;;;10.12;97.02
9059;BME280;4564;42.034;25.834;2023-10-31T02:45:09;100342.19;;;10.16;96.52
9059;BME280;4564;42.034;25.834;2023-10-31T02:47:36;100344.91;;;10.16;96.59
9059;BME280;4564;42.034;25.834;2023-10-31T02:50:03;100346.53;;;10.25;96.35
9059;BME280;4564;42.034;25.834;2023-10-31T02:52:30;100343.16;;;10.23;96.01
9059;BME280;4564;42.034;25.834;2023-10-31T02:54:57;100350.16;;;10.32;95.68
9059;BME280;4564;42.034;25.834;2023-10-31T02:57:24;100354.28;;;10.28;94.31
9059;BME280;4564;42.034;25.834;2023-10-31T02:59:51;100353.81;;;10.25;94.24
9059;BME280;4564;42.034;25.834;2023-10-31T03:02:18;100357.91;;;10.21;94.53
9059;BME280;4564;42.034;25.834;2023-10-31T03:04:44;100356.41;;;10.18;94.49
9059;BME280;4564;42.034;25.834;2023-10-31T03:07:11;100352.72;;;10.11;94.43
9059;BME280;4564;42.034;25.834;2023-10-31T03:09:37;100354.41;;;10.12;94.82
9059;BME280;4564;42.034;25.834;2023-10-31T03:12:04;100349.25;;;10.25;94.70
9059;BME280;4564;42.034;25.834;2023-10-31T03:14:32;100349.25;;;10.25;94.17
9059;BME280;4564;42.034;25.834;2023-10-31T03:16:59;100352.47;;;10.21;94.53
9059;BME280;4564;42.034;25.834;2023-10-31T03:19:25;100355.31;;;10.27;94.30
9059;BME280;4564;42.034;25.834;2023-10-31T03:21:52;100357.38;;;10.25;94.15
9059;BME280;4564;42.034;25.834;2023-10-31T03:24:18;100355.00;;;10.22;93.86
9059;BME280;4564;42.034;25.834;2023-10-31T03:26:45;100355.41;;;10.19;93.71
9059;BME280;4564;42.034;25.834;2023-10-31T03:29:11;100352.00;;;10.17;93.31
9059;BME280;4564;42.034;25.834;2023-10-31T03:31:39;100353.56;;;10.11;93.04
9059;BME280;4564;42.034;25.834;2023-10-31T03:34:06;100354.06;;;9.92;92.96
9059;BME280;4564;42.034;25.834;2023-10-31T03:36:32;100337.31;;;9.89;92.77
9059;BME280;4564;42.034;25.834;2023-10-31T03:38:59;100331.00;;;9.96;92.36
9059;BME280;4564;42.034;25.834;2023-10-31T03:41:26;100339.97;;;9.97;91.26
9059;BME280;4564;42.034;25.834;2023-10-31T03:43:52;100339.38;;;9.87;90.92
9059;BME280;4564;42.034;25.834;2023-10-31T03:46:19;100341.13;;;9.80;91.20
9059;BME280;4564;42.034;25.834;2023-10-31T03:48:47;100337.09;;;9.76;91.26
9059;BME280;4564;42.034;25.834;2023-10-31T03:51:13;100339.41;;;9.79;91.45
9059;BME280;4564;42.034;25.834;2023-10-31T03:53:40;100335.88;;;9.78;91.46
9059;BME280;4564;42.034;25.834;2023-10-31T03:56:06;100337.94;;;9.76;91.91
9059;BME280;4564;42.034;25.834;2023-10-31T03:58:33;100338.16;;;9.66;92.16
9059;BME280;4564;42.034;25.834;2023-10-31T04:01:00;100340.03;;;9.66;92.14
9059;BME280;4564;42.034;25.834;2023-10-31T04:03:27;100331.78;;;9.59;92.60
9059;BME280;4564;42.034;25.834;2023-10-31T04:05:55;100328.22;;;9.59;92.82
9059;BME280;4564;42.034;25.834;2023-10-31T04:08:22;100337.06;;;9.53;93.15
9059;BME280;4564;42.034;25.834;2023-10-31T04:10:48;100337.75;;;9.55;93.82
9059;BME280;4564;42.034;25.834;2023-10-31T04:13:15;100335.56;;;9.50;94.09
9059;BME280;4564;42.034;25.834;2023-10-31T04:15:41;100338.25;;;9.50;94.46
9059;BME280;4564;42.034;25.834;2023-10-31T04:18:08;100335.25;;;9.45;94.72
9059;BME280;4564;42.034;25.834;2023-10-31T04:20:34;100331.38;;;9.40;94.84
9059;BME280;4564;42.034;25.834;2023-10-31T04:23:02;100332.94;;;9.34;94.90
9059;BME280;4564;42.034;25.834;2023-10-31T04:25:30;100334.63;;;9.35;94.84
9059;BME280;4564;42.034;25.834;2023-10-31T04:27:57;100340.34;;;9.17;95.29
9059;BME280;4564;42.034;25.834;2023-10-31T04:30:24;100340.59;;;9.00;95.67
9059;BME280;4564;42.034;25.834;2023-10-31T04:32:51;100335.50;;;8.97;95.82
9059;BME280;4564;42.034;25.834;2023-10-31T04:35:18;100331.66;;;8.91;95.88
9059;BME280;4564;42.034;25.834;2023-10-31T04:37:44;100331.16;;;8.88;95.63
9059;BME280;4564;42.034;25.834;2023-10-31T04:40:13;100339.13;;;8.89;95.70
9059;BME280;4564;42.034;25.834;2023-10-31T04:42:39;100336.88;;;9.01;95.30
9059;BME280;4564;42.034;25.834;2023-10-31T04:45:06;100332.31;;;9.01;94.77
9059;BME280;4564;42.034;25.834;2023-10-31T04:47:33;100338.19;;;9.05;94.98
9059;BME280;4564;42.034;25.834;2023-10-31T04:49:59;100346.63;;;9.10;94.39
9059;BME280;4564;42.034;25.834;2023-10-31T04:52:26;100336.47;;;9.12;93.71
9059;BME280;4564;42.034;25.834;2023-10-31T04:54:52;100346.56;;;9.18;93.51
9059;BME280;4564;42.034;25.834;2023-10-31T04:57:20;100351.47;;;9.22;93.83
9059;BME280;4564;42.034;25.834;2023-10-31T04:59:47;100346.38;;;9.27;93.22
9059;BME280;4564;42.034;25.834;2023-10-31T05:02:14;100345.47;;;9.35;93.60
9059;BME280;4564;42.034;25.834;2023-10-31T05:04:40;100344.91;;;9.48;93.67
9059;BME280;4564;42.034;25.834;2023-10-31T05:07:07;100349.44;;;9.55;93.29
9059;BME280;4564;42.034;25.834;2023-10-31T05:09:34;100354.78;;;9.63;93.34
9059;BME280;4564;42.034;25.834;2023-10-31T05:12:00;100359.00;;;9.66;93.05
9059;BME280;4564;42.034;25.834;2023-10-31T05:14:29;100356.47;;;9.64;93.00
9059;BME280;4564;42.034;25.834;2023-10-31T05:16:55;100358.16;;;9.65;93.07
9059;BME280;4564;42.034;25.834;2023-10-31T05:19:22;100354.22;;;9.68;93.44
9059;BME280;4564;42.034;25.834;2023-10-31T05:21:48;100355.03;;;9.77;94.93
9059;BME280;4564;42.034;25.834;2023-10-31T05:24:15;100349.28;;;9.94;94.91
9059;BME280;4564;42.034;25.834;2023-10-31T05:26:41;100353.34;;;9.98;93.89
9059;BME280;4564;42.034;25.834;2023-10-31T05:29:08;100361.41;;;10.06;93.81
9059;BME280;4564;42.034;25.834;2023-10-31T05:31:36;100359.44;;;10.15;93.33
9059;BME280;4564;42.034;25.834;2023-10-31T05:34:03;100366.09;;;10.13;92.09
9059;BME280;4564;42.034;25.834;2023-10-31T05:36:30;100373.22;;;10.14;90.62
9059;BME280;4564;42.034;25.834;2023-10-31T05:38:56;100367.28;;;10.10;90.13
9059;BME280;4564;42.034;25.834;2023-10-31T05:41:23;100367.66;;;10.07;89.61
9059;BME280;4564;42.034;25.834;2023-10-31T05:43:50;100379.69;;;10.04;88.83
9059;BME280;4564;42.034;25.834;2023-10-31T05:46:17;100371.66;;;9.96;89.62
9059;BME280;4564;42.034;25.834;2023-10-31T05:48:45;100380.81;;;10.18;89.47
9059;BME280;4564;42.034;25.834;2023-10-31T05:51:12;100377.97;;;10.34;87.99
9059;BME280;4564;42.034;25.834;2023-10-31T05:53:40;100384.38;;;10.56;86.94
9059;BME280;4564;42.034;25.834;2023-10-31T05:56:07;100381.84;;;11.13;85.53
9059;BME280;4564;42.034;25.834;2023-10-31T05:58:34;100387.25;;;11.78;82.46
9059;BME280;4564;42.034;25.834;2023-10-31T06:01:00;100380.31;;;12.68;80.16
9059;BME280;4564;42.034;25.834;2023-10-31T06:03:27;100385.81;;;13.50;76.99
9059;BME280;4564;42.034;25.834;2023-10-31T06:05:55;100379.88;;;14.00;77.82
9059;BME280;4564;42.034;25.834;2023-10-31T06:08:20;100380.34;;;14.63;76.83
9059;BME280;4564;42.034;25.834;2023-10-31T06:10:49;100387.00;;;15.06;73.64
9059;BME280;4564;42.034;25.834;2023-10-31T06:13:16;100394.69;;;15.42;72.00
9059;BME280;4564;42.034;25.834;2023-10-31T06:15:42;100390.53;;;15.27;72.85
9059;BME280;4564;42.034;25.834;2023-10-31T06:18:09;100392.28;;;15.66;72.25
9059;BME280;4564;42.034;25.834;2023-10-31T06:20:36;100388.63;;;16.16;70.76
9059;BME280;4564;42.034;25.834;2023-10-31T06:23:04;100392.66;;;16.38;70.12
9059;BME280;4564;42.034;25.834;2023-10-31T06:25:30;100377.75;;;17.02;67.34
9059;BME280;4564;42.034;25.834;2023-10-31T06:27:57;100379.44;;;16.60;67.52
9059;BME280;4564;42.034;25.834;2023-10-31T06:30:23;100384.69;;;16.30;68.06
9059;BME280;4564;42.034;25.834;2023-10-31T06:32:50;100375.72;;;16.48;68.15
9059;BME280;4564;42.034;25.834;2023-10-31T06:35:17;100375.19;;;16.08;69.28
9059;BME280;4564;42.034;25.834;2023-10-31T06:37:43;100372.84;;;16.68;68.41
9059;BME280;4564;42.034;25.834;2023-10-31T06:40:12;100371.31;;;17.15;66.15
9059;BME280;4564;42.034;25.834;2023-10-31T06:42:38;100379.50;;;17.99;63.14
9059;BME280;4564;42.034;25.834;2023-10-31T06:45:05;100367.41;;;18.19;63.02
9059;BME280;4564;42.034;25.834;2023-10-31T06:47:32;100376.19;;;18.51;61.96
9059;BME280;4564;42.034;25.834;2023-10-31T06:49:59;100371.44;;;18.81;61.08
9059;BME280;4564;42.034;25.834;2023-10-31T06:52:25;100363.56;;;18.20;62.82
9059;BME280;4564;42.034;25.834;2023-10-31T06:54:52;100371.22;;;18.18;63.03
9059;BME280;4564;42.034;25.834;2023-10-31T06:57:20;100361.09;;;18.30;63.28
9059;BME280;4564;42.034;25.834;2023-10-31T06:59:46;100365.34;;;18.67;62.00
9059;BME280;4564;42.034;25.834;2023-10-31T07:02:13;100372.66;;;18.32;62.94
9059;BME280;4564;42.034;25.834;2023-10-31T07:04:40;100367.38;;;18.72;62.63
9059;BME280;4564;42.034;25.834;2023-10-31T07:07:06;100371.78;;;18.84;62.89
9059;BME280;4564;42.034;25.834;2023-10-31T07:09:33;100373.13;;;18.82;63.65
9059;BME280;4564;42.034;25.834;2023-10-31T07:12:00;100373.19;;;19.45;62.34
9059;BME280;4564;42.034;25.834;2023-10-31T07:14:28;100373.66;;;19.82;61.13
9059;BME280;4564;42.034;25.834;2023-10-31T07:16:55;100380.31;;;19.69;61.05
9059;BME280;4564;42.034;25.834;2023-10-31T07:19:22;100372.72;;;19.13;62.09
9059;BME280;4564;42.034;25.834;2023-10-31T07:21:48;100372.16;;;19.00;63.44
9059;BME280;4564;42.034;25.834;2023-10-31T07:24:15;100381.50;;;19.62;62.13
9059;BME280;4564;42.034;25.834;2023-10-31T07:26:42;100386.63;;;19.98;60.84
9059;BME280;4564;42.034;25.834;2023-10-31T07:29:08;100374.38;;;19.38;64.56
9059;BME280;4564;42.034;25.834;2023-10-31T07:31:36;100379.84;;;19.49;67.49
9059;BME280;4564;42.034;25.834;2023-10-31T07:34:04;100377.38;;;19.24;70.27
9059;BME280;4564;42.034;25.834;2023-10-31T07:36:30;100366.53;;;18.71;78.01
9059;BME280;4564;42.034;25.834;2023-10-31T07:39:00;100367.25;;;19.02;78.86
9059;BME280;4564;42.034;25.834;2023-10-31T07:41:27;100367.31;;;19.30;79.12
9059;BME280;4564;42.034;25.834;2023-10-31T07:43:53;100368.69;;;19.16;80.52
9059;BME280;4564;42.034;25.834;2023-10-31T07:46:20;100372.06;;;18.95;81.49
9059;BME280;4564;42.034;25.834;2023-10-31T07:48:49;100378.50;;;18.89;82.50
9059;BME280;4564;42.034;25.834;2023-10-31T07:51:16;100380.06;;;18.73;82.57
9059;BME280;4564;42.034;25.834;2023-10-31T07:53:43;100375.78;;;18.47;83.37
9059;BME280;4564;42.034;25.834;2023-10-31T07:56:14;100377.13;;;18.44;83.79
9059;BME280;4564;42.034;25.834;2023-10-31T07:58:41;100378.97;;;18.62;84.15
9059;BME280;4564;42.034;25.834;2023-10-31T08:01:07;100373.97;;;18.82;82.39
9059;BME280;4564;42.034;25.834;2023-10-31T08:03:36;100375.38;;;18.73;82.87
9059;BME280;4564;42.034;25.834;2023-10-31T08:06:05;100371.78;;;18.96;82.30
9059;BME280;4564;42.034;25.834;2023-10-31T08:08:31;100365.47;;;18.72;84.21
9059;BME280;4564;42.034;25.834;2023-10-31T08:10:58;100354.47;;;18.08;87.57
9059;BME280;4564;42.034;25.834;2023-10-31T08:13:25;100349.25;;;18.18;87.81
9059;BME280;4564;42.034;25.834;2023-10-31T08:15:51;100352.31;;;18.10;89.48
9059;BME280;4564;42.034;25.834;2023-10-31T08:18:19;100347.88;;;18.09;90.39
9059;BME280;4564;42.034;25.834;2023-10-31T08:20:45;100349.53;;;18.39;89.83
9059;BME280;4564;42.034;25.834;2023-10-31T08:23:16;100340.06;;;18.35;89.80
9059;BME280;4564;42.034;25.834;2023-10-31T08:25:42;100333.63;;;18.30;90.85
9059;BME280;4564;42.034;25.834;2023-10-31T08:28:09;100331.88;;;18.06;91.92
9059;BME280;4564;42.034;25.834;2023-10-31T08:30:37;100331.28;;;18.03;92.73
9059;BME280;4564;42.034;25.834;2023-10-31T08:33:04;100334.56;;;18.24;92.50
9059;BME280;4564;42.034;25.834;2023-10-31T08:35:31;100329.44;;;18.39;91.73
9059;BME280;4564;42.034;25.834;2023-10-31T08:37:57;100324.06;;;18.44;91.05
9059;BME280;4564;42.034;25.834;2023-10-31T08:40:25;100339.16;;;18.76;90.84
9059;BME280;4564;42.034;25.834;2023-10-31T08:42:52;100336.75;;;18.68;90.57
9059;BME280;4564;42.034;25.834;2023-10-31T08:45:20;100333.56;;;18.71;91.25
9059;BME280;4564;42.034;25.834;2023-10-31T08:47:46;100329.91;;;19.06;89.50
9059;BME280;4564;42.034;25.834;2023-10-31T08:50:13;100332.19;;;19.20;88.39
9059;BME280;4564;42.034;25.834;2023-10-31T08:52:40;100324.13;;;19.31;88.67
9059;BME280;4564;42.034;25.834;2023-10-31T08:55:06;100318.38;;;19.32;88.27
9059;BME280;4564;42.034;25.834;2023-10-31T08:57:34;100307.50;;;19.25;88.55
9059;BME280;4564;42.034;25.834;2023-10-31T09:00:01;100299.78;;;19.11;88.93
9059;BME280;4564;42.034;25.834;2023-10-31T09:02:30;100289.97;;;19.03;88.89
9059;BME280;4564;42.034;25.834;2023-10-31T09:04:56;100280.34;;;18.89;89.84
9059;BME280;4564;42.034;25.834;2023-10-31T09:07:23;100277.34;;;18.79;90.16
9059;BME280;4564;42.034;25.834;2023-10-31T09:09:50;100265.03;;;18.81;89.94
9059;BME280;4564;42.034;25.834;2023-10-31T09:12:17;100263.34;;;18.80;90.01
9059;BME280;4564;42.034;25.834;2023-10-31T09:14:45;100261.97;;;18.55;90.72
9059;BME280;4564;42.034;25.834;2023-10-31T09:17:11;100245.94;;;18.40;92.16
9059;BME280;4564;42.034;25.834;2023-10-31T09:19:38;100241.88;;;18.54;92.02
9059;BME280;4564;42.034;25.834;2023-10-31T09:22:05;100242.44;;;18.68;91.61
9059;BME280;4564;42.034;25.834;2023-10-31T09:24:31;100229.63;;;18.85;90.75
9059;BME280;4564;42.034;25.834;2023-10-31T09:26:58;100232.03;;;18.81;91.43
9059;BME280;4564;42.034;25.834;2023-10-31T09:29:24;100238.34;;;18.94;91.07
9059;BME280;4564;42.034;25.834;2023-10-31T09:31:52;100229.53;;;19.20;90.59
9059;BME280;4564;42.034;25.834;2023-10-31T09:34:19;100223.09;;;19.43;89.60
9059;BME280;4564;42.034;25.834;2023-10-31T09:36:46;100217.22;;;19.39;89.82
9059;BME280;4564;42.034;25.834;2023-10-31T09:39:12;100202.94;;;19.25;90.04
9059;BME280;4564;42.034;25.834;2023-10-31T09:41:39;100193.75;;;19.20;90.66
9059;BME280;4564;42.034;25.834;2023-10-31T09:44:06;100184.28;;;19.44;90.09
9059;BME280;4564;42.034;25.834;2023-10-31T09:46:32;100185.09;;;19.56;89.17
9059;BME280;4564;42.034;25.834;2023-10-31T09:49:01;100171.50;;;19.66;88.70
9059;BME280;4564;42.034;25.834;2023-10-31T09:51:29;100170.50;;;19.73;88.01
9059;BME280;4564;42.034;25.834;2023-10-31T09:53:55;100169.00;;;19.82;87.62
9059;BME280;4564;42.034;25.834;2023-10-31T09:56:23;100154.81;;;19.90;86.78
9059;BME280;4564;42.034;25.834;2023-10-31T09:58:50;100161.16;;;19.90;87.01
9059;BME280;4564;42.034;25.834;2023-10-31T10:01:17;100159.25;;;19.91;87.33
9059;BME280;4564;42.034;25.834;2023-10-31T10:03:44;100153.13;;;19.89;87.45
9059;BME280;4564;42.034;25.834;2023-10-31T10:06:12;100157.13;;;19.98;86.84
9059;BME280;4564;42.034;25.834;2023-10-31T10:08:39;100138.78;;;19.87;87.24
9059;BME280;4564;42.034;25.834;2023-10-31T10:11:06;100138.69;;;19.82;87.29
9059;BME280;4564;42.034;25.834;2023-10-31T10:13:33;100132.88;;;19.78;88.23
9059;BME280;4564;42.034;25.834;2023-10-31T10:15:59;100120.22;;;19.99;87.63
9059;BME280;4564;42.034;25.834;2023-10-31T10:18:26;100119.59;;;20.13;86.66
9059;BME280;4564;42.034;25.834;2023-10-31T10:20:56;100113.00;;;20.31;86.49
9059;BME280;4564;42.034;25.834;2023-10-31T10:23:25;100114.75;;;20.37;85.51
9059;BME280;4564;42.034;25.834;2023-10-31T10:25:52;100109.75;;;20.34;84.77
9059;BME280;4564;42.034;25.834;2023-10-31T10:28:19;100104.78;;;20.36;85.70
9059;BME280;4564;42.034;25.834;2023-10-31T10:30:46;100100.19;;;20.42;85.78
9059;BME280;4564;42.034;25.834;2023-10-31T10:33:13;100091.78;;;20.53;85.61
9059;BME280;4564;42.034;25.834;2023-10-31T10:35:40;100084.91;;;20.78;84.54
9059;BME280;4564;42.034;25.834;2023-10-31T10:38:08;100086.75;;;20.94;83.36
9059;BME280;4564;42.034;25.834;2023-10-31T10:40:37;100077.13;;;21.02;82.62
9059;BME280;4564;42.034;25.834;2023-10-31T10:43:06;100067.13;;;20.95;82.40
9059;BME280;4564;42.034;25.834;2023-10-31T10:45:36;100062.19;;;20.98;82.18
9059;BME280;4564;42.034;25.834;2023-10-31T10:48:05;100048.25;;;21.09;81.42
9059;BME280;4564;42.034;25.834;2023-10-31T10:50:32;100045.69;;;21.29;80.58
9059;BME280;4564;42.034;25.834;2023-10-31T10:53:04;100036.84;;;21.32;78.95
9059;BME280;4564;42.034;25.834;2023-10-31T10:55:35;100035.59;;;21.45;79.58
9059;BME280;4564;42.034;25.834;2023-10-31T10:58:08;100028.44;;;21.49;79.09
9059;BME280;4564;42.034;25.834;2023-10-31T11:00:39;100026.06;;;21.63;78.39
9059;BME280;4564;42.034;25.834;2023-10-31T11:03:06;100018.91;;;21.72;77.22
9059;BME280;4564;42.034;25.834;2023-10-31T11:05:33;100007.91;;;21.82;77.28
9059;BME280;4564;42.034;25.834;2023-10-31T11:08:00;100013.50;;;21.92;75.94
9059;BME280;4564;42.034;25.834;2023-10-31T11:10:28;100011.03;;;21.91;75.32
9059;BME280;4564;42.034;25.834;2023-10-31T11:12:55;100000.88;;;21.96;75.24
9059;BME280;4564;42.034;25.834;2023-10-31T11:15:23;99996.19;;;22.02;74.28
9059;BME280;4564;42.034;25.834;2023-10-31T11:17:50;99986.00;;;22.12;73.34
9059;BME280;4564;42.034;25.834;2023-10-31T11:20:17;99986.28;;;22.16;72.68
9059;BME280;4564;42.034;25.834;2023-10-31T11:22:44;99976.66;;;22.24;72.29
9059;BME280;4564;42.034;25.834;2023-10-31T11:25:17;99975.03;;;22.38;72.04
9059;BME280;4564;42.034;25.834;2023-10-31T11:27:44;99964.81;;;22.48;71.92
9059;BME280;4564;42.034;25.834;2023-10-31T11:30:19;99949.63;;;22.51;71.69
9059;BME280;4564;42.034;25.834;2023-10-31T11:32:48;99953.50;;;22.55;71.79
9059;BME280;4564;42.034;25.834;2023-10-31T11:35:16;99948.81;;;22.71;71.07
9059;BME280;4564;42.034;25.834;2023-10-31T11:37:42;99943.88;;;22.78;70.16
9059;BME280;4564;42.034;25.834;2023-10-31T11:40:16;99953.50;;;22.70;69.59
9059;BME280;4564;42.034;25.834;2023-10-31T11:42:43;99936.63;;;22.67;70.40
9059;BME280;4564;42.034;25.834;2023-10-31T11:45:10;99931.38;;;22.65;70.43
9059;BME280;4564;42.034;25.834;2023-10-31T11:47:48;99927.53;;;22.71;70.09
9059;BME280;4564;42.034;25.834;2023-10-31T11:50:15;99919.50;;;22.80;69.83
9059;BME280;4564;42.034;25.834;2023-10-31T11:52:42;99920.31;;;22.90;69.70
9059;BME280;4564;42.034;25.834;2023-10-31T11:55:08;99918.09;;;23.02;68.19
9059;BME280;4564;42.034;25.834;2023-10-31T11:57:35;99909.25;;;23.00;67.51
9059;BME280;4564;42.034;25.834;2023-10-31T12:00:02;99909.22;;;23.11;67.04
9059;BME280;4564;42.034;25.834;2023-10-31T12:02:30;99912.00;;;23.16;66.00
9059;BME280;4564;42.034;25.834;2023-10-31T12:05:07;99902.03;;;23.15;65.78
9059;BME280;4564;42.034;25.834;2023-10-31T12:07:41;99894.00;;;23.18;64.11
9059;BME280;4564;42.034;25.834;2023-10-31T12:10:08;99885.13;;;23.26;63.42
9059;BME280;4564;42.034;25.834;2023-10-31T12:12:34;99894.25;;;23.22;62.89
9059;BME280;4564;42.034;25.834;2023-10-31T12:15:04;99883.75;;;23.19;63.85
9059;BME280;4564;42.034;25.834;2023-10-31T12:17:32;99894.56;;;23.20;64.05
9059;BME280;4564;42.034;25.834;2023-10-31T12:19:58;99887.59;;;23.28;63.98
9059;BME280;4564;42.034;25.834;2023-10-31T12:22:30;99882.63;;;23.30;63.59
9059;BME280;4564;42.034;25.834;2023-10-31T12:25:00;99886.50;;;23.24;63.51
9059;BME280;4564;42.034;25.834;2023-10-31T12:27:41;99883.19;;;23.22;64.82
9059;BME280;4564;42.034;25.834;2023-10-31T12:30:08;99883.75;;;23.24;63.78
9059;BME280;4564;42.034;25.834;2023-10-31T12:32:34;99878.19;;;23.29;62.94
9059;BME280;4564;42.034;25.834;2023-10-31T12:35:01;99867.13;;;23.24;63.39
9059;BME280;4564;42.034;25.834;2023-10-31T12:37:28;99873.78;;;23.18;64.61
9059;BME280;4564;42.034;25.834;2023-10-31T12:39:56;99870.47;;;23.16;64.93
9059;BME280;4564;42.034;25.834;2023-10-31T12:42:24;99862.44;;;23.14;64.62
9059;BME280;4564;42.034;25.834;2023-10-31T12:44:54;99854.41;;;23.18;64.04
9059;BME280;4564;42.034;25.834;2023-10-31T12:47:21;99856.63;;;23.16;64.02
9059;BME280;4564;42.034;25.834;2023-10-31T12:49:48;99854.97;;;23.15;64.73
9059;BME280;4564;42.034;25.834;2023-10-31T12:52:14;99852.72;;;23.17;63.63
9059;BME280;4564;42.034;25.834;2023-10-31T12:54:41;99851.66;;;23.13;64.14
9059;BME280;4564;42.034;25.834;2023-10-31T12:57:09;99848.91;;;23.08;64.72
9059;BME280;4564;42.034;25.834;2023-10-31T12:59:36;99849.44;;;23.10;64.78
9059;BME280;4564;42.034;25.834;2023-10-31T13:02:04;99848.91;;;23.08;65.01
9059;BME280;4564;42.034;25.834;2023-10-31T13:04:32;99840.59;;;23.02;64.76